createdAt,value
2022-10-11T00:02:26.443Z,101245.25
2022-10-11T00:05:28.476Z,101246.38
2022-10-11T00:08:30.322Z,101247.53
2022-10-11T00:11:32.075Z,101254.63
2022-10-11T00:14:34.149Z,101261.84
2022-10-11T00:17:35.890Z,101254.00
2022-10-11T00:20:37.763Z,101267.00
2022-10-11T00:23:39.528Z,101272.88
2022-10-11T00:26:46.534Z,101273.25
2022-10-11T00:29:48.878Z,101279.66
2022-10-11T00:32:50.669Z,101274.25
2022-10-11T00:35:52.306Z,101273.50
2022-10-11T00:38:54.111Z,101273.19
2022-10-11T00:41:55.937Z,101279.59
2022-10-11T00:45:26.976Z,101284.59
2022-10-11T00:48:43.206Z,101285.44
2022-10-11T00:51:51.411Z,101284.75
2022-10-11T00:54:53.061Z,101287.13
2022-10-11T00:57:57.046Z,101291.03
2022-10-11T01:00:58.837Z,101283.28
2022-10-11T01:04:02.254Z,101284.72
2022-10-11T01:07:04.016Z,101285.72
2022-10-11T01:10:07.037Z,101293.69
2022-10-11T01:13:14.374Z,101294.69
2022-10-11T01:16:27.832Z,101293.78
2022-10-11T01:20:07.726Z,101294.53
2022-10-11T01:23:39.626Z,101290.00
2022-10-11T01:26:52.565Z,101303.25
2022-10-11T01:30:23.199Z,101302.31
2022-10-11T01:33:38.306Z,101303.84
2022-10-11T01:36:55.938Z,101310.25
2022-10-11T01:40:00.991Z,101313.97
2022-10-11T01:43:04.442Z,101312.31
2022-10-11T01:46:09.653Z,101314.22
2022-10-11T01:49:11.895Z,101312.47
2022-10-11T01:52:13.644Z,101321.94
2022-10-11T01:55:54.684Z,101313.47
2022-10-11T01:59:28.548Z,101323.09
2022-10-11T02:02:46.306Z,101325.06
2022-10-11T02:06:06.462Z,101327.41
2022-10-11T02:09:11.156Z,101324.09
2022-10-11T02:12:24.520Z,101332.91
2022-10-11T02:15:30.588Z,101336.53
2022-10-11T02:18:38.343Z,101333.97
2022-10-11T02:21:44.009Z,101333.91
2022-10-11T02:24:50.439Z,101339.63
2022-10-11T02:27:57.328Z,101336.38
2022-10-11T02:31:01.645Z,101337.13
2022-10-11T02:34:25.276Z,101335.56
2022-10-11T02:37:41.820Z,101340.88
2022-10-11T02:40:48.548Z,101340.09
2022-10-11T02:44:00.656Z,101339.19
2022-10-11T02:47:04.253Z,101344.19
2022-10-11T02:50:06.459Z,101338.34
2022-10-11T02:53:08.664Z,101342.53
2022-10-11T02:56:10.483Z,101344.44
2022-10-11T02:59:12.397Z,101343.00
2022-10-11T03:02:14.683Z,101342.09
2022-10-11T03:05:16.448Z,101349.06
2022-10-11T03:08:18.134Z,101352.47
2022-10-11T03:11:19.851Z,101356.03
2022-10-11T03:14:21.584Z,101360.50
2022-10-11T03:17:36.256Z,101356.25
2022-10-11T03:20:38.711Z,101370.00
2022-10-11T03:23:40.428Z,101374.22
2022-10-11T03:26:42.057Z,101377.84
2022-10-11T03:29:43.765Z,101382.16
2022-10-11T03:32:45.780Z,101388.31
2022-10-11T03:35:48.695Z,101389.13
2022-10-11T03:38:50.495Z,101383.09
2022-10-11T03:41:52.224Z,101386.50
2022-10-11T03:44:53.980Z,101390.00
2022-10-11T03:47:55.649Z,101391.69
2022-10-11T03:50:57.547Z,101397.78
2022-10-11T03:53:59.183Z,101406.38
2022-10-11T03:57:00.825Z,101405.56
2022-10-11T04:00:02.589Z,101405.78
2022-10-11T04:03:06.762Z,101414.44
2022-10-11T04:06:08.866Z,101411.91
2022-10-11T04:09:10.752Z,101416.25
2022-10-11T04:12:12.711Z,101424.94
2022-10-11T04:15:14.519Z,101428.56
2022-10-11T04:18:16.701Z,101425.28
2022-10-11T04:21:18.335Z,101437.22
2022-10-11T04:24:20.300Z,101441.59
2022-10-11T04:27:22.238Z,101441.53
2022-10-11T04:30:23.954Z,101441.38
2022-10-11T04:33:25.796Z,101442.16
2022-10-11T04:36:27.362Z,101448.22
2022-10-11T04:39:29.172Z,101443.88
2022-10-11T04:42:30.998Z,101451.53
2022-10-11T04:45:32.984Z,101448.94
2022-10-11T04:48:35.531Z,101448.06
2022-10-11T04:51:37.353Z,101449.56
2022-10-11T04:54:39.091Z,101462.50
2022-10-11T04:57:40.781Z,101460.00
2022-10-11T05:00:42.453Z,101466.28
2022-10-11T05:03:45.105Z,101464.31
2022-10-11T05:06:46.835Z,101470.31
2022-10-11T05:09:48.590Z,101473.63
2022-10-11T05:12:50.352Z,101473.69
2022-10-11T05:15:52.597Z,101480.53
2022-10-11T05:18:54.324Z,101471.97
2022-10-11T05:21:56.246Z,101476.44
2022-10-11T05:24:58.067Z,101480.75
2022-10-11T05:28:00.151Z,101478.94
2022-10-11T05:31:01.818Z,101484.16
2022-10-11T05:34:03.615Z,101492.91
2022-10-11T05:37:05.759Z,101498.22
2022-10-11T05:40:08.098Z,101500.94
2022-10-11T05:43:09.913Z,101507.00
2022-10-11T05:46:12.349Z,101514.75
2022-10-11T05:49:13.995Z,101519.72
2022-10-11T05:52:20.234Z,101526.47
2022-10-11T05:55:22.129Z,101522.97
2022-10-11T05:58:24.699Z,101528.94
2022-10-11T06:01:27.392Z,101524.50
2022-10-11T06:04:29.239Z,101534.88
2022-10-11T06:07:31.114Z,101543.44
2022-10-11T06:10:33.367Z,101536.63
2022-10-11T06:13:35.799Z,101548.81
2022-10-11T06:16:38.032Z,101553.25
2022-10-11T06:19:39.767Z,101554.31
2022-10-11T06:22:41.688Z,101556.13
2022-10-11T06:25:43.476Z,101554.59
2022-10-11T06:28:45.588Z,101562.38
2022-10-11T06:31:48.815Z,101561.47
2022-10-11T06:34:50.724Z,101561.53
2022-10-11T06:37:52.442Z,101565.72
2022-10-11T06:40:54.408Z,101571.72
2022-10-11T06:43:56.955Z,101570.84
2022-10-11T06:46:58.616Z,101576.84
2022-10-11T06:50:00.420Z,101583.44
2022-10-11T06:53:02.350Z,101588.31
2022-10-11T06:56:09.013Z,101593.44
2022-10-11T06:59:12.225Z,101589.00
2022-10-11T07:02:14.041Z,101591.38
2022-10-11T07:05:16.908Z,101590.31
2022-10-11T07:08:18.657Z,101601.22
2022-10-11T07:11:26.813Z,101599.34
2022-10-11T07:14:28.848Z,101599.25
2022-10-11T07:17:30.504Z,101610.06
2022-10-11T07:20:32.142Z,101612.25
2022-10-11T07:23:34.615Z,101610.19
2022-10-11T07:26:38.933Z,101614.09
2022-10-11T07:29:41.237Z,101616.13
2022-10-11T07:32:42.972Z,101612.13
2022-10-11T07:35:48.218Z,101625.47
2022-10-11T07:38:50.659Z,101615.66
2022-10-11T07:41:52.368Z,101616.44
2022-10-11T07:44:54.552Z,101614.69
2022-10-11T07:47:56.875Z,101619.19
2022-10-11T07:51:13.782Z,101619.63
2022-10-11T07:54:15.793Z,101616.53
2022-10-11T07:57:17.471Z,101630.03
2022-10-11T08:00:19.329Z,101625.22
2022-10-11T08:03:21.054Z,101628.22
2022-10-11T08:06:27.187Z,101634.13
2022-10-11T08:09:29.053Z,101634.94
2022-10-11T08:12:30.860Z,101635.28
2022-10-11T08:15:32.936Z,101637.50
2022-10-11T08:18:34.573Z,101639.25
2022-10-11T08:21:36.577Z,101645.00
2022-10-11T08:24:38.604Z,101637.91
2022-10-11T08:27:40.458Z,101641.66
2022-10-11T08:30:48.231Z,101648.56
2022-10-11T08:33:50.079Z,101646.13
2022-10-11T08:36:51.843Z,101647.78
2022-10-11T08:39:53.500Z,101657.28
2022-10-11T08:43:03.070Z,101656.47
2022-10-11T08:46:08.294Z,101664.41
2022-10-11T08:49:13.601Z,101670.09
2022-10-11T08:52:38.038Z,101667.63
2022-10-11T08:55:46.086Z,101666.88
2022-10-11T08:59:12.105Z,101671.41
2022-10-11T09:02:26.335Z,101660.03
2022-10-11T09:05:35.682Z,101671.50
2022-10-11T09:09:02.935Z,101669.41
2022-10-11T09:12:29.506Z,101668.53
2022-10-11T09:15:38.594Z,101668.81
2022-10-11T09:19:05.592Z,101674.91
2022-10-11T09:22:17.473Z,101674.00
2022-10-11T09:25:25.869Z,101674.28
2022-10-11T09:29:00.178Z,101679.00
2022-10-11T09:32:02.908Z,101675.03
2022-10-11T09:35:14.343Z,101676.69
2022-10-11T09:38:31.150Z,101678.06
2022-10-11T09:41:49.685Z,101679.81
2022-10-11T09:44:51.815Z,101683.66
2022-10-11T09:47:56.436Z,101687.50
2022-10-11T09:51:12.891Z,101677.94
2022-10-11T09:54:14.579Z,101686.41
2022-10-11T09:57:22.386Z,101678.56
2022-10-11T10:00:27.294Z,101686.59
2022-10-11T10:03:37.529Z,101691.53
2022-10-11T10:06:40.390Z,101683.59
2022-10-11T10:09:42.120Z,101687.66
2022-10-11T10:12:44.040Z,101678.19
2022-10-11T10:15:48.488Z,101685.97
2022-10-11T10:18:52.427Z,101680.25
2022-10-11T10:21:56.065Z,101677.66
2022-10-11T10:25:02.432Z,101691.50
2022-10-11T10:28:24.123Z,101680.25
2022-10-11T10:32:08.840Z,101690.84
2022-10-11T10:35:25.948Z,101691.06
2022-10-11T10:38:48.658Z,101681.50
2022-10-11T10:41:53.879Z,101692.72
2022-10-11T10:44:58.632Z,101686.13
2022-10-11T10:49:01.720Z,101689.56
2022-10-11T10:52:15.171Z,101687.03
2022-10-11T10:55:32.373Z,101690.13
2022-10-11T10:58:52.145Z,101691.59
2022-10-11T11:02:46.403Z,101683.56
2022-10-11T11:05:54.728Z,101679.09
2022-10-11T11:09:15.349Z,101688.53
2022-10-11T11:12:22.997Z,101689.34
2022-10-11T11:15:37.978Z,101689.34
2022-10-11T11:18:55.112Z,101686.97
2022-10-11T11:22:10.291Z,101686.25
2022-10-11T11:25:39.340Z,101682.75
2022-10-11T11:28:49.996Z,101688.56
2022-10-11T11:31:58.092Z,101673.81
2022-10-11T11:35:03.835Z,101683.38
2022-10-11T11:38:33.897Z,101684.94
2022-10-11T11:41:51.550Z,101684.81
2022-10-11T11:44:53.860Z,101695.38
2022-10-11T11:48:20.369Z,101686.25
2022-10-11T11:51:34.560Z,101684.25
2022-10-11T11:54:48.732Z,101686.34
2022-10-11T11:57:59.463Z,101683.75
2022-10-11T12:01:21.524Z,101682.53
2022-10-11T12:04:36.075Z,101683.91
2022-10-11T12:07:59.852Z,101684.78
2022-10-11T12:11:02.738Z,101679.97
2022-10-11T12:14:28.586Z,101681.84
2022-10-11T12:17:31.607Z,101677.44
2022-10-11T12:20:40.807Z,101675.13
2022-10-11T12:23:53.498Z,101674.63
2022-10-11T12:26:58.592Z,101673.25
2022-10-11T12:30:00.398Z,101667.22
2022-10-11T12:33:24.654Z,101675.59
2022-10-11T12:36:35.614Z,101679.00
2022-10-11T12:39:45.288Z,101676.03
2022-10-11T12:43:19.091Z,101669.09
2022-10-11T12:46:39.677Z,101671.28
2022-10-11T12:50:06.217Z,101676.00
2022-10-11T12:53:37.875Z,101672.47
2022-10-11T12:57:20.068Z,101671.34
2022-10-11T13:00:31.820Z,101670.19
2022-10-11T13:03:41.100Z,101664.16
2022-10-11T13:06:49.563Z,101662.91
2022-10-11T13:09:55.229Z,101666.19
2022-10-11T13:13:00.308Z,101656.19
2022-10-11T13:16:09.430Z,101657.16
2022-10-11T13:19:14.302Z,101657.94
2022-10-11T13:22:20.575Z,101651.53
2022-10-11T13:25:27.804Z,101657.50
2022-10-11T13:28:36.178Z,101654.78
2022-10-11T13:31:40.789Z,101658.47
2022-10-11T13:34:46.223Z,101655.66
2022-10-11T13:37:49.021Z,101658.44
2022-10-11T13:40:51.446Z,101653.47
2022-10-11T13:43:55.458Z,101656.81
2022-10-11T13:46:57.492Z,101653.84
2022-10-11T13:50:17.144Z,101653.66
2022-10-11T13:53:18.863Z,101646.47
2022-10-11T13:56:21.593Z,101642.00
2022-10-11T13:59:28.109Z,101646.56
2022-10-11T14:02:31.418Z,101641.09
2022-10-11T14:05:40.683Z,101646.41
2022-10-11T14:08:42.573Z,101648.09
2022-10-11T14:11:44.602Z,101643.00
2022-10-11T14:14:48.132Z,101638.94
2022-10-11T14:17:51.486Z,101645.22
2022-10-11T14:20:53.647Z,101639.34
2022-10-11T14:24:10.436Z,101641.47
2022-10-11T14:27:21.470Z,101647.00
2022-10-11T14:30:26.592Z,101638.13
2022-10-11T14:33:29.476Z,101633.63
2022-10-11T14:36:31.657Z,101637.06
2022-10-11T14:39:33.672Z,101641.44
2022-10-11T14:42:35.505Z,101642.91
2022-10-11T14:45:37.257Z,101648.34
2022-10-11T14:48:56.019Z,101642.53
2022-10-11T14:51:59.106Z,101645.00
2022-10-11T14:55:02.217Z,101654.38
2022-10-11T14:58:05.455Z,101640.66
2022-10-11T15:01:07.941Z,101640.25
2022-10-11T15:04:09.923Z,101640.41
2022-10-11T15:07:14.009Z,101644.78
2022-10-11T15:10:30.208Z,101647.19
2022-10-11T15:13:32.345Z,101637.91
2022-10-11T15:16:34.878Z,101641.81
2022-10-11T15:19:37.633Z,101632.31
2022-10-11T15:22:39.499Z,101632.19
2022-10-11T15:25:42.359Z,101628.06
2022-10-11T15:28:44.607Z,101626.63
2022-10-11T15:31:46.617Z,101629.19
2022-10-11T15:34:48.273Z,101628.94
2022-10-11T15:37:55.937Z,101628.78
2022-10-11T15:40:58.575Z,101630.34
2022-10-11T15:44:00.450Z,101627.50
2022-10-11T15:47:02.304Z,101633.63
2022-10-11T15:50:12.730Z,101624.25
2022-10-11T15:53:17.207Z,101636.31
2022-10-11T15:56:19.931Z,101630.84
2022-10-11T15:59:21.837Z,101621.69
2022-10-11T16:02:23.795Z,101628.81
2022-10-11T16:05:27.677Z,101632.41
2022-10-11T16:08:29.752Z,101630.94
2022-10-11T16:11:31.776Z,101637.28
2022-10-11T16:14:33.400Z,101637.66
2022-10-11T16:17:36.892Z,101645.75
2022-10-11T16:20:40.833Z,101634.84
2022-10-11T16:23:43.201Z,101642.75
2022-10-11T16:26:44.861Z,101641.25
2022-10-11T16:29:46.692Z,101645.66
2022-10-11T16:32:48.449Z,101646.56
2022-10-11T16:35:50.308Z,101643.84
2022-10-11T16:38:52.060Z,101649.84
2022-10-11T16:41:53.934Z,101644.63
2022-10-11T16:44:55.644Z,101653.81
2022-10-11T16:47:57.487Z,101645.00
2022-10-11T16:51:06.007Z,101646.63
2022-10-11T16:54:07.916Z,101647.88
2022-10-11T16:57:10.804Z,101648.28
2022-10-11T17:00:13.583Z,101647.88
2022-10-11T17:03:15.564Z,101643.03
2022-10-11T17:06:17.962Z,101651.19
2022-10-11T17:09:19.971Z,101643.94
2022-10-11T17:12:23.601Z,101649.44
2022-10-11T17:15:26.471Z,101652.44
2022-10-11T17:18:28.667Z,101645.00
2022-10-11T17:21:30.613Z,101642.75
2022-10-11T17:24:34.456Z,101650.66
2022-10-11T17:27:36.250Z,101652.50
2022-10-11T17:30:39.148Z,101640.66
2022-10-11T17:33:40.975Z,101644.47
2022-10-11T17:36:43.918Z,101640.44
2022-10-11T17:39:45.872Z,101648.41
2022-10-11T17:42:48.128Z,101648.56
2022-10-11T17:46:01.641Z,101646.28
2022-10-11T17:49:06.199Z,101654.34
2022-10-11T17:52:07.938Z,101647.75
2022-10-11T17:55:09.919Z,101649.81
2022-10-11T17:58:12.526Z,101642.28
2022-10-11T18:01:17.495Z,101644.28
2022-10-11T18:04:22.003Z,101654.91
2022-10-11T18:07:24.391Z,101643.91
2022-10-11T18:10:27.227Z,101645.94
2022-10-11T18:13:29.277Z,101646.03
2022-10-11T18:16:32.717Z,101643.00
2022-10-11T18:19:34.868Z,101652.22
2022-10-11T18:22:36.727Z,101649.97
2022-10-11T18:25:38.451Z,101646.63
2022-10-11T18:28:41.093Z,101650.34
2022-10-11T18:31:43.152Z,101655.50
2022-10-11T18:34:44.870Z,101650.56
2022-10-11T18:37:46.685Z,101647.16
2022-10-11T18:40:48.673Z,101646.59
2022-10-11T18:43:55.219Z,101650.22
2022-10-11T18:46:58.654Z,101643.56
2022-10-11T18:50:01.978Z,101641.22
2022-10-11T18:56:11.569Z,101637.88
2022-10-11T18:59:20.467Z,101637.19
2022-10-11T19:02:22.864Z,101632.03
2022-10-11T19:05:24.713Z,101632.09
2022-10-11T19:08:28.866Z,101632.03
2022-10-11T19:11:31.784Z,101631.38
2022-10-11T19:14:33.563Z,101628.06
2022-10-11T19:17:35.270Z,101635.09
2022-10-11T19:20:37.071Z,101633.50
2022-10-11T19:23:41.834Z,101629.47
2022-10-11T19:26:43.670Z,101635.44
2022-10-11T19:29:45.538Z,101631.34
2022-10-11T19:32:47.259Z,101629.75
2022-10-11T19:35:59.702Z,101634.97
2022-10-11T19:39:01.482Z,101634.06
2022-10-11T19:42:05.632Z,101638.31
2022-10-11T19:45:08.109Z,101630.72
2022-10-11T19:48:13.372Z,101631.69
2022-10-11T19:51:16.739Z,101629.34
2022-10-11T19:54:18.682Z,101630.31
2022-10-11T19:57:20.734Z,101630.41
2022-10-11T20:00:22.428Z,101632.25
2022-10-11T20:03:24.132Z,101634.16
2022-10-11T20:06:27.907Z,101631.63
2022-10-11T20:09:31.192Z,101627.47
2022-10-11T20:12:33.527Z,101627.59
2022-10-11T20:15:44.585Z,101630.19
2022-10-11T20:18:55.116Z,101626.97
2022-10-11T20:21:56.853Z,101628.00
2022-10-11T20:24:59.982Z,101626.34
2022-10-11T20:28:02.825Z,101628.94
2022-10-11T20:31:12.946Z,101631.50
2022-10-11T20:34:14.979Z,101630.03
2022-10-11T20:37:17.178Z,101631.84
2022-10-11T20:40:18.862Z,101625.16
2022-10-11T20:43:21.179Z,101625.88
2022-10-11T20:46:25.292Z,101621.63
2022-10-11T20:49:27.271Z,101621.81
2022-10-11T20:52:29.356Z,101625.25
2022-10-11T20:55:31.038Z,101627.53
2022-10-11T20:58:32.856Z,101628.06
2022-10-11T21:01:38.725Z,101630.84
2022-10-11T21:04:40.458Z,101628.69
2022-10-11T21:07:42.084Z,101625.41
2022-10-11T21:10:51.631Z,101630.69
2022-10-11T21:14:01.679Z,101629.97
2022-10-11T21:17:03.450Z,101630.03
2022-10-11T21:20:06.249Z,101621.50
2022-10-11T21:23:09.033Z,101623.22
2022-10-11T21:26:12.859Z,101620.91
2022-10-11T21:29:14.698Z,101627.72
2022-10-11T21:32:16.335Z,101621.84
2022-10-11T21:35:18.207Z,101626.38
2022-10-11T21:38:19.867Z,101632.22
2022-10-11T21:41:25.517Z,101626.44
2022-10-11T21:44:27.886Z,101633.28
2022-10-11T21:47:31.418Z,101637.56
2022-10-11T21:50:33.302Z,101627.28
2022-10-11T21:53:35.079Z,101629.16
2022-10-11T21:56:36.702Z,101628.47
2022-10-11T21:59:38.495Z,101625.19
2022-10-11T22:02:40.648Z,101627.88
2022-10-11T22:05:48.638Z,101627.00
2022-10-11T22:08:50.816Z,101627.84
2022-10-11T22:11:52.425Z,101631.28
2022-10-11T22:14:54.067Z,101628.81
2022-10-11T22:17:55.910Z,101625.41
2022-10-11T22:21:10.057Z,101614.25
2022-10-11T22:24:11.700Z,101620.50
2022-10-11T22:27:13.415Z,101623.19
2022-10-11T22:30:15.111Z,101620.88
2022-10-11T22:33:17.169Z,101622.69
2022-10-11T22:36:19.484Z,101621.19
2022-10-11T22:39:21.207Z,101629.84
2022-10-11T22:42:26.875Z,101623.97
2022-10-11T22:45:29.467Z,101626.63
2022-10-11T22:48:31.138Z,101624.38
2022-10-11T22:51:32.820Z,101629.59
2022-10-11T22:54:34.668Z,101628.81
2022-10-11T22:57:36.739Z,101619.50
2022-10-11T23:00:38.687Z,101620.47
2022-10-11T23:03:40.359Z,101619.69
2022-10-11T23:06:41.955Z,101611.31
2022-10-11T23:09:43.840Z,101617.41
2022-10-11T23:12:45.744Z,101607.44
2022-10-11T23:15:47.664Z,101614.91
2022-10-11T23:18:53.173Z,101610.81
2022-10-11T23:21:55.104Z,101620.22
2022-10-11T23:24:57.835Z,101624.69
2022-10-11T23:28:01.117Z,101628.31
2022-10-11T23:31:11.075Z,101629.44
2022-10-11T23:34:13.782Z,101627.66
2022-10-11T23:37:15.371Z,101635.59
2022-10-11T23:40:17.106Z,101633.94
2022-10-11T23:43:18.760Z,101636.53
2022-10-11T23:46:21.037Z,101638.16
2022-10-11T23:49:22.899Z,101628.09
2022-10-11T23:52:24.419Z,101639.31
2022-10-11T23:55:26.017Z,101634.09
2022-10-11T23:58:27.764Z,101636.75
